sensor_id;sensor_type;location;lat;lon;timestamp;pressure;altitude;pressure_sealevel;temperature;humidity
929;BME280;451;47.988;7.842;2022-10-31T00:05:57;98926.06;;;14.27;92.81
929;BME280;451;47.988;7.842;2022-10-31T00:14:58;98843.03;;;13.40;95.41
929;BME280;451;47.988;7.842;2022-10-31T00:24:00;98760.84;;;12.60;95.92
929;BME280;451;47.988;7.842;2022-10-31T00:33:05;98912.91;;;13.89;96.88
929;BME280;451;47.988;7.842;2022-10-31T00:42:07;98738.44;;;12.56;97.90
929;BME280;451;47.988;7.842;2022-10-31T00:51:09;98250.34;;;8.21;95.63
929;BME280;451;47.988;7.842;2022-10-31T01:00:11;99171.28;;;13.87;97.13
929;BME280;451;47.988;7.842;2022-10-31T01:09:13;98339.66;;;10.29;96.18
929;BME280;451;47.988;7.842;2022-10-31T01:18:15;98910.91;;;13.91;96.49
929;BME280;451;47.988;7.842;2022-10-31T01:27:17;99332.28;;;13.66;96.14
929;BME280;451;47.988;7.842;2022-10-31T01:36:27;98438.03;;;10.73;96.03
929;BME280;451;47.988;7.842;2022-10-31T01:45:29;98893.66;;;13.66;98.57
929;BME280;451;47.988;7.842;2022-10-31T01:54:34;99254.06;;;13.49;99.07
929;BME280;451;47.988;7.842;2022-10-31T02:03:37;97834.31;;;7.16;96.91
929;BME280;451;47.988;7.842;2022-10-31T02:12:39;98904.94;;;13.74;97.61
929;BME280;451;47.988;7.842;2022-10-31T02:22:02;98285.19;;;10.15;96.86
929;BME280;451;47.988;7.842;2022-10-31T02:40:25;98871.31;;;13.54;99.54
929;BME280;451;47.988;7.842;2022-10-31T02:50:06;98645.78;;;12.21;98.40
929;BME280;451;47.988;7.842;2022-10-31T02:59:08;98857.81;;;13.49;100.00
929;BME280;451;47.988;7.842;2022-10-31T03:08:34;98860.53;;;13.41;100.00
929;BME280;451;47.988;7.842;2022-10-31T03:27:01;98844.66;;;13.78;98.48
929;BME280;451;47.988;7.842;2022-10-31T03:36:07;98742.34;;;12.14;100.00
929;BME280;451;47.988;7.842;2022-10-31T03:45:14;98830.78;;;13.76;99.22
929;BME280;451;47.988;7.842;2022-10-31T03:54:25;98795.66;;;13.23;100.00
929;BME280;451;47.988;7.842;2022-10-31T04:03:32;98476.78;;;11.33;99.04
929;BME280;451;47.988;7.842;2022-10-31T04:12:38;98766.88;;;12.91;100.00
929;BME280;451;47.988;7.842;2022-10-31T04:21:52;98751.31;;;12.96;100.00
929;BME280;451;47.988;7.842;2022-10-31T04:30:54;98828.06;;;13.55;100.00
929;BME280;451;47.988;7.842;2022-10-31T04:39:57;98835.69;;;13.64;100.00
929;BME280;451;47.988;7.842;2022-10-31T04:49:31;98774.19;;;13.41;100.00
929;BME280;451;47.988;7.842;2022-10-31T04:58:33;98654.63;;;12.66;100.00
929;BME280;451;47.988;7.842;2022-10-31T05:07:38;98888.09;;;13.61;100.00
929;BME280;451;47.988;7.842;2022-10-31T05:16:41;98830.38;;;13.12;100.00
929;BME280;451;47.988;7.842;2022-10-31T05:26:08;98833.09;;;13.04;100.00
929;BME280;451;47.988;7.842;2022-10-31T05:35:12;98609.25;;;11.56;100.00
929;BME280;451;47.988;7.842;2022-10-31T05:44:35;98824.72;;;12.70;100.00
929;BME280;451;47.988;7.842;2022-10-31T05:53:50;98828.84;;;12.95;100.00
929;BME280;451;47.988;7.842;2022-10-31T06:03:00;98631.97;;;11.57;100.00
929;BME280;451;47.988;7.842;2022-10-31T06:12:22;98804.63;;;12.91;100.00
929;BME280;451;47.988;7.842;2022-10-31T06:21:49;98820.59;;;12.98;100.00
929;BME280;451;47.988;7.842;2022-10-31T06:30:51;98768.91;;;12.81;100.00
929;BME280;451;47.988;7.842;2022-10-31T06:39:53;98815.69;;;13.32;100.00
929;BME280;451;47.988;7.842;2022-10-31T06:48:55;98615.47;;;11.63;100.00
929;BME280;451;47.988;7.842;2022-10-31T06:58:22;98815.63;;;13.41;100.00
929;BME280;451;47.988;7.842;2022-10-31T07:07:25;98817.56;;;14.05;100.00
929;BME280;451;47.988;7.842;2022-10-31T07:16:27;98828.53;;;14.02;100.00
929;BME280;451;47.988;7.842;2022-10-31T07:25:29;98828.22;;;13.53;100.00
929;BME280;451;47.988;7.842;2022-10-31T07:34:45;98736.25;;;14.43;96.93
929;BME280;451;47.988;7.842;2022-10-31T07:43:53;98779.25;;;14.67;97.75
929;BME280;451;47.988;7.842;2022-10-31T07:53:34;98619.03;;;14.00;93.71
929;BME280;451;47.988;7.842;2022-10-31T08:03:02;98603.03;;;14.72;91.63
929;BME280;451;47.988;7.842;2022-10-31T08:12:33;98781.22;;;16.38;89.62
929;BME280;451;47.988;7.842;2022-10-31T08:21:35;98848.38;;;16.93;86.66
929;BME280;451;47.988;7.842;2022-10-31T08:30:38;98699.69;;;15.93;86.03
929;BME280;451;47.988;7.842;2022-10-31T08:40:10;98650.59;;;16.43;83.18
929;BME280;451;47.988;7.842;2022-10-31T08:49:13;98832.50;;;17.85;81.44
929;BME280;451;47.988;7.842;2022-10-31T08:58:18;98815.25;;;18.07;81.70
929;BME280;451;47.988;7.842;2022-10-31T09:07:26;98808.63;;;18.30;79.98
929;BME280;451;47.988;7.842;2022-10-31T09:16:29;98671.31;;;17.58;79.54
929;BME280;451;47.988;7.842;2022-10-31T09:25:32;98666.16;;;18.21;79.08
929;BME280;451;47.988;7.842;2022-10-31T09:35:00;98702.09;;;18.68;74.36
929;BME280;451;47.988;7.842;2022-10-31T09:44:13;98773.59;;;19.27;76.14
929;BME280;451;47.988;7.842;2022-10-31T09:53:26;98738.09;;;18.01;84.93
929;BME280;451;47.988;7.842;2022-10-31T10:02:38;98783.75;;;19.12;80.98
929;BME280;451;47.988;7.842;2022-10-31T10:39:43;98807.66;;;19.25;76.82
929;BME280;451;47.988;7.842;2022-10-31T10:58:11;98754.63;;;18.61;82.80
929;BME280;451;47.988;7.842;2022-10-31T11:07:13;98727.66;;;17.99;92.41
929;BME280;451;47.988;7.842;2022-10-31T11:25:29;98718.50;;;19.39;82.71
929;BME280;451;47.988;7.842;2022-10-31T11:34:45;98683.75;;;19.52;80.55
929;BME280;451;47.988;7.842;2022-10-31T11:43:52;98667.41;;;20.27;75.31
929;BME280;451;47.988;7.842;2022-10-31T11:52:55;98663.22;;;20.61;71.26
929;BME280;451;47.988;7.842;2022-10-31T12:01:59;98644.63;;;20.42;72.52
929;BME280;451;47.988;7.842;2022-10-31T12:48:56;98520.94;;;20.53;74.66
929;BME280;451;47.988;7.842;2022-10-31T12:58:20;98548.28;;;20.26;76.96
929;BME280;451;47.988;7.842;2022-10-31T13:16:35;98505.53;;;20.14;78.13
929;BME280;451;47.988;7.842;2022-10-31T13:25:41;98332.41;;;19.18;77.37
929;BME280;451;47.988;7.842;2022-10-31T13:34:52;98429.41;;;20.58;72.69
929;BME280;451;47.988;7.842;2022-10-31T13:53:22;98471.06;;;20.71;76.25
929;BME280;451;47.988;7.842;2022-10-31T14:02:36;98459.94;;;20.04;82.41
929;BME280;451;47.988;7.842;2022-10-31T14:11:38;98332.94;;;18.97;82.53
929;BME280;451;47.988;7.842;2022-10-31T14:20:42;98397.38;;;20.46;80.26
929;BME280;451;47.988;7.842;2022-10-31T14:29:44;98395.34;;;21.33;74.53
929;BME280;451;47.988;7.842;2022-10-31T14:57:07;98447.25;;;19.76;88.96
929;BME280;451;47.988;7.842;2022-10-31T15:06:18;98256.19;;;18.75;88.97
929;BME280;451;47.988;7.842;2022-10-31T15:15:23;98416.97;;;19.70;88.42
929;BME280;451;47.988;7.842;2022-10-31T15:24:33;98286.94;;;18.89;87.24
929;BME280;451;47.988;7.842;2022-10-31T15:33:42;98423.41;;;19.51;88.93
929;BME280;451;47.988;7.842;2022-10-31T15:42:51;98533.16;;;19.00;93.04
929;BME280;451;47.988;7.842;2022-10-31T15:51:55;98426.94;;;19.04;92.94
929;BME280;451;47.988;7.842;2022-10-31T16:01:23;98430.22;;;18.69;94.72
929;BME280;451;47.988;7.842;2022-10-31T16:10:26;98286.41;;;17.17;97.18
929;BME280;451;47.988;7.842;2022-10-31T16:19:31;98453.97;;;17.85;100.00
929;BME280;451;47.988;7.842;2022-10-31T16:28:35;98395.00;;;17.31;100.00
929;BME280;451;47.988;7.842;2022-10-31T16:37:38;98230.84;;;15.57;100.00
929;BME280;451;47.988;7.842;2022-10-31T16:46:40;98573.81;;;16.81;100.00
929;BME280;451;47.988;7.842;2022-10-31T16:55:45;98461.25;;;16.88;100.00
929;BME280;451;47.988;7.842;2022-10-31T17:04:47;98462.22;;;16.36;100.00
929;BME280;451;47.988;7.842;2022-10-31T17:13:49;98369.06;;;15.67;100.00
929;BME280;451;47.988;7.842;2022-10-31T17:22:51;98426.56;;;15.66;100.00
929;BME280;451;47.988;7.842;2022-10-31T17:31:53;98370.97;;;14.79;100.00
929;BME280;451;47.988;7.842;2022-10-31T17:40:55;98310.75;;;14.34;100.00
929;BME280;451;47.988;7.842;2022-10-31T17:49:56;98338.28;;;14.46;100.00
929;BME280;451;47.988;7.842;2022-10-31T17:58:58;98538.81;;;15.46;100.00
929;BME280;451;47.988;7.842;2022-10-31T18:08:00;98213.75;;;13.46;100.00
929;BME280;451;47.988;7.842;2022-10-31T18:17:02;98463.25;;;14.96;100.00
929;BME280;451;47.988;7.842;2022-10-31T18:26:05;98511.63;;;15.17;100.00
929;BME280;451;47.988;7.842;2022-10-31T18:35:09;98517.91;;;15.10;100.00
929;BME280;451;47.988;7.842;2022-10-31T18:44:11;98448.22;;;14.55;100.00
929;BME280;451;47.988;7.842;2022-10-31T18:53:13;98498.00;;;14.79;100.00
929;BME280;451;47.988;7.842;2022-10-31T19:02:15;98463.31;;;14.61;100.00
929;BME280;451;47.988;7.842;2022-10-31T19:11:17;98146.59;;;12.65;100.00
929;BME280;451;47.988;7.842;2022-10-31T19:20:19;98458.25;;;14.66;100.00
929;BME280;451;47.988;7.842;2022-10-31T19:29:21;98425.72;;;14.38;100.00
929;BME280;451;47.988;7.842;2022-10-31T19:38:23;98429.72;;;14.27;100.00
929;BME280;451;47.988;7.842;2022-10-31T19:47:24;98481.66;;;14.69;100.00
929;BME280;451;47.988;7.842;2022-10-31T19:56:26;98359.69;;;13.82;100.00
929;BME280;451;47.988;7.842;2022-10-31T20:05:28;98551.53;;;14.47;100.00
929;BME280;451;47.988;7.842;2022-10-31T20:14:29;98363.13;;;13.83;100.00
929;BME280;451;47.988;7.842;2022-10-31T20:23:32;98298.16;;;13.32;100.00
929;BME280;451;47.988;7.842;2022-10-31T20:32:34;98419.75;;;13.95;100.00
929;BME280;451;47.988;7.842;2022-10-31T20:41:36;98498.41;;;14.21;100.00
929;BME280;451;47.988;7.842;2022-10-31T20:50:39;98480.16;;;14.26;100.00
929;BME280;451;47.988;7.842;2022-10-31T20:59:41;98468.38;;;14.00;100.00
929;BME280;451;47.988;7.842;2022-10-31T21:08:43;98460.06;;;14.03;100.00
929;BME280;451;47.988;7.842;2022-10-31T21:17:45;98465.25;;;13.90;100.00
929;BME280;451;47.988;7.842;2022-10-31T21:26:49;98462.13;;;14.08;100.00
929;BME280;451;47.988;7.842;2022-10-31T21:35:51;98398.25;;;13.27;100.00
929;BME280;451;47.988;7.842;2022-10-31T21:44:53;98409.63;;;13.98;100.00
929;BME280;451;47.988;7.842;2022-10-31T21:53:55;98336.47;;;13.50;100.00
929;BME280;451;47.988;7.842;2022-10-31T22:03:16;98454.66;;;14.18;100.00
929;BME280;451;47.988;7.842;2022-10-31T22:12:17;98471.94;;;14.14;100.00
929;BME280;451;47.988;7.842;2022-10-31T22:21:21;98547.03;;;14.20;100.00
929;BME280;451;47.988;7.842;2022-10-31T22:30:26;98327.91;;;14.03;100.00
929;BME280;451;47.988;7.842;2022-10-31T22:39:28;98254.09;;;13.61;100.00
929;BME280;451;47.988;7.842;2022-10-31T22:48:33;98459.72;;;14.82;100.00
929;BME280;451;47.988;7.842;2022-10-31T22:57:35;98651.44;;;14.45;100.00
929;BME280;451;47.988;7.842;2022-10-31T23:06:37;98436.00;;;14.54;100.00
929;BME280;451;47.988;7.842;2022-10-31T23:15:39;97987.31;;;11.76;100.00
929;BME280;451;47.988;7.842;2022-10-31T23:24:43;98428.91;;;14.27;100.00
929;BME280;451;47.988;7.842;2022-10-31T23:33:45;98136.59;;;11.90;100.00
929;BME280;451;47.988;7.842;2022-10-31T23:42:47;98428.53;;;14.30;100.00
929;BME280;451;47.988;7.842;2022-10-31T23:51:49;98438.22;;;14.50;100.00
